createdAt,value
2018-05-10T00:00:41.175Z,16.90
2018-05-10T00:05:45.801Z,16.80
2018-05-10T00:16:06.432Z,16.60
2018-05-10T00:21:18.557Z,16.50
2018-05-10T00:26:22.142Z,16.40
2018-05-10T00:36:38.240Z,16.30
2018-05-10T00:41:44.018Z,16.10
2018-05-10T00:51:58.030Z,16.00
2018-05-10T01:02:16.436Z,15.80
2018-05-10T01:22:50.833Z,15.50
2018-05-10T01:27:56.768Z,15.40
2018-05-10T01:33:01.473Z,15.30
2018-05-10T01:38:12.655Z,15.20
2018-05-10T01:43:22.663Z,15.10
2018-05-10T01:58:52.742Z,14.90
2018-05-10T02:04:02.538Z,14.80
2018-05-10T02:09:11.563Z,14.80
2018-05-10T02:14:19.889Z,14.80
2018-05-10T02:19:31.093Z,14.70
2018-05-10T02:24:38.851Z,14.60
2018-05-10T02:29:48.439Z,14.60
2018-05-10T02:34:52.871Z,14.60
2018-05-10T02:40:01.388Z,14.60
2018-05-10T02:45:09.939Z,14.50
2018-05-10T02:50:22.772Z,14.50
2018-05-10T02:55:31.342Z,14.50
2018-05-10T03:00:43.577Z,14.50
2018-05-10T03:05:52.700Z,14.50
2018-05-10T03:11:03.150Z,14.50
2018-05-10T03:16:11.771Z,14.50
2018-05-10T03:21:26.627Z,14.40
2018-05-10T03:26:35.820Z,14.40
2018-05-10T03:36:54.056Z,14.40
2018-05-10T03:42:05.491Z,14.40
2018-05-10T03:47:12.019Z,14.40
2018-05-10T03:52:24.247Z,14.40
2018-05-10T03:57:32.094Z,14.40
2018-05-10T04:03:02.477Z,14.30
2018-05-10T04:08:31.217Z,14.30
2018-05-10T04:13:37.223Z,14.30
2018-05-10T04:18:54.512Z,14.30
2018-05-10T04:24:03.192Z,14.30
2018-05-10T04:29:14.135Z,14.20
2018-05-10T04:34:26.396Z,14.30
2018-05-10T04:39:34.808Z,14.20
2018-05-10T04:44:52.024Z,14.30
2018-05-10T04:50:08.506Z,14.20
2018-05-10T05:00:25.786Z,14.30
2018-05-10T05:05:36.698Z,14.40
2018-05-10T05:10:47.495Z,14.40
2018-05-10T05:16:04.033Z,14.50
2018-05-10T05:26:23.203Z,14.60
2018-05-10T05:31:39.540Z,14.70
2018-05-10T05:36:53.484Z,15.00
2018-05-10T05:42:02.177Z,15.00
2018-05-10T05:47:13.142Z,15.20
2018-05-10T05:52:32.129Z,15.30
2018-05-10T06:25:17.985Z,17.30
2018-05-10T06:37:02.066Z,17.90
2018-05-10T08:41:37.367Z,25.30
2018-05-10T08:51:47.045Z,25.60
2018-05-10T08:56:50.299Z,25.90
2018-05-10T09:01:54.177Z,26.10
2018-05-10T09:18:12.256Z,26.60
2018-05-10T09:23:31.747Z,26.70
2018-05-10T09:28:34.381Z,26.80
2018-05-10T09:33:37.217Z,26.90
2018-05-10T09:38:39.897Z,27.20
2018-05-10T09:43:43.227Z,27.40
2018-05-10T09:48:45.820Z,27.70
2018-05-10T09:53:48.642Z,27.80
2018-05-10T09:58:51.361Z,28.00
2018-05-10T10:03:53.942Z,28.10
2018-05-10T10:08:56.566Z,28.20
2018-05-10T10:13:59.215Z,28.20
2018-05-10T10:19:01.891Z,28.50
2018-05-10T10:24:04.954Z,28.70
2018-05-10T10:29:07.531Z,29.00
2018-05-10T10:34:10.191Z,29.10
2018-05-10T10:39:12.772Z,29.10
2018-05-10T10:44:15.408Z,29.10
2018-05-10T10:49:18.056Z,29.20
2018-05-10T10:54:20.681Z,29.40
2018-05-10T10:59:24.067Z,29.20
2018-05-10T11:04:26.846Z,28.80
2018-05-10T11:09:29.631Z,28.60
2018-05-10T11:14:32.248Z,28.40
2018-05-10T11:19:34.849Z,28.10
2018-05-10T11:24:37.614Z,28.00
2018-05-10T11:29:40.298Z,27.90
2018-05-10T11:34:42.989Z,27.90
2018-05-10T11:39:45.610Z,27.90
2018-05-10T11:44:48.204Z,28.00
2018-05-10T11:49:50.785Z,28.00
2018-05-10T11:54:53.451Z,28.00
2018-05-10T11:59:56.184Z,28.00
2018-05-10T12:04:59.977Z,28.00
2018-05-10T12:10:02.722Z,28.10
2018-05-10T12:15:06.337Z,28.30
2018-05-10T12:20:10.121Z,28.40
2018-05-10T12:25:14.502Z,28.40
2018-05-10T12:30:17.644Z,28.30
2018-05-10T12:35:21.673Z,28.10
2018-05-10T12:40:24.612Z,28.00
2018-05-10T12:45:32.043Z,28.10
2018-05-10T12:50:34.686Z,28.10
2018-05-10T12:55:39.926Z,28.20
2018-05-10T13:00:42.547Z,28.10
2018-05-10T13:05:45.742Z,28.20
2018-05-10T13:10:48.385Z,28.10
2018-05-10T13:15:50.935Z,28.10
2018-05-10T13:20:53.497Z,28.00
2018-05-10T13:25:56.116Z,27.90
2018-05-10T13:30:58.717Z,27.70
2018-05-10T13:36:01.327Z,27.50
2018-05-10T13:41:03.933Z,27.30
2018-05-10T13:46:06.542Z,27.10
2018-05-10T13:51:09.168Z,27.10
2018-05-10T13:56:12.342Z,27.00
2018-05-10T14:01:14.949Z,26.90
2018-05-10T14:06:18.639Z,26.90
2018-05-10T14:11:21.202Z,26.80
2018-05-10T14:16:23.752Z,26.70
2018-05-10T14:21:26.315Z,26.50
2018-05-10T14:26:29.081Z,26.30
2018-05-10T14:31:31.701Z,26.20
2018-05-10T14:36:35.055Z,25.90
2018-05-10T14:41:42.146Z,25.80
2018-05-10T14:46:44.877Z,25.60
2018-05-10T14:51:47.472Z,25.40
2018-05-10T14:56:50.139Z,25.30
2018-05-10T15:01:52.849Z,25.20
2018-05-10T15:06:55.473Z,25.20
2018-05-10T15:11:58.290Z,25.30
2018-05-10T15:17:00.965Z,25.20
2018-05-10T15:22:03.569Z,25.10
2018-05-10T15:27:06.201Z,25.00
2018-05-10T15:32:08.763Z,24.90
2018-05-10T15:37:12.005Z,24.80
2018-05-10T15:42:14.561Z,24.60
2018-05-10T15:47:17.165Z,24.50
2018-05-10T15:52:19.797Z,24.40
2018-05-10T15:57:22.581Z,24.30
2018-05-10T16:02:26.702Z,24.10
2018-05-10T16:07:30.147Z,24.10
2018-05-10T16:12:32.768Z,24.00
2018-05-10T16:17:36.055Z,23.90
2018-05-10T16:22:38.781Z,23.70
2018-05-10T16:27:41.622Z,23.50
2018-05-10T16:32:44.251Z,23.40
2018-05-10T16:37:47.070Z,23.30
2018-05-10T16:42:49.785Z,23.20
2018-05-10T16:47:52.389Z,23.00
2018-05-10T16:52:55.066Z,23.00
2018-05-10T16:58:02.104Z,22.80
2018-05-10T17:03:05.745Z,22.80
2018-05-10T17:08:08.563Z,22.60
2018-05-10T17:13:11.207Z,22.50
2018-05-10T17:18:13.759Z,22.40
2018-05-10T17:23:17.063Z,22.20
2018-05-10T17:28:19.751Z,22.10
2018-05-10T17:33:22.322Z,22.00
2018-05-10T17:38:25.048Z,21.90
2018-05-10T17:43:27.601Z,21.80
2018-05-10T17:48:30.186Z,21.70
2018-05-10T17:53:32.789Z,21.60
2018-05-10T17:58:35.366Z,21.50
2018-05-10T18:03:38.003Z,21.40
2018-05-10T18:08:40.596Z,21.20
2018-05-10T18:13:43.283Z,21.10
2018-05-10T18:23:55.874Z,20.90
2018-05-10T18:28:59.384Z,20.80
2018-05-10T18:34:02.341Z,20.70
2018-05-10T18:39:05.879Z,20.60
2018-05-10T18:44:08.517Z,20.50
2018-05-10T18:49:11.480Z,20.40
2018-05-10T18:54:14.483Z,20.40
2018-05-10T18:59:17.151Z,20.30
2018-05-10T19:04:22.106Z,20.10
2018-05-10T19:09:32.217Z,20.10
2018-05-10T19:14:38.514Z,19.90
2018-05-10T19:19:44.579Z,19.90
2018-05-10T19:24:51.000Z,19.80
2018-05-10T19:29:57.046Z,19.80
2018-05-10T19:34:59.851Z,19.70
2018-05-10T19:40:04.301Z,19.70
2018-05-10T19:45:12.712Z,19.60
2018-05-10T19:50:18.590Z,19.60
2018-05-10T19:55:23.815Z,19.50
2018-05-10T20:00:27.590Z,19.40
2018-05-10T20:05:30.743Z,19.40
2018-05-10T20:10:34.714Z,19.20
2018-05-10T20:15:41.897Z,19.20
2018-05-10T20:20:52.137Z,19.20
2018-05-10T20:26:01.083Z,19.20
2018-05-10T20:31:09.468Z,19.10
2018-05-10T20:36:16.488Z,19.10
2018-05-10T20:41:28.243Z,19.00
2018-05-10T20:46:33.183Z,18.90
2018-05-10T20:51:41.719Z,18.80
2018-05-10T20:56:46.651Z,18.70
2018-05-10T21:01:50.912Z,18.70
2018-05-10T21:06:56.672Z,18.60
2018-05-10T21:17:20.281Z,18.50
2018-05-10T21:22:29.587Z,18.40
2018-05-10T21:32:45.442Z,18.30
2018-05-10T21:48:16.390Z,18.10
2018-05-10T21:53:22.490Z,18.00
2018-05-10T21:58:30.237Z,18.00
2018-05-10T22:03:35.698Z,17.90
2018-05-10T22:08:43.654Z,17.90
2018-05-10T22:13:54.414Z,17.80
2018-05-10T22:18:59.537Z,17.70
2018-05-10T22:24:05.818Z,17.70
2018-05-10T22:29:13.025Z,17.60
2018-05-10T22:34:20.593Z,17.60
2018-05-10T22:39:25.606Z,17.50
2018-05-10T22:44:30.533Z,17.50
2018-05-10T22:49:34.349Z,17.40
2018-05-10T22:54:37.862Z,17.30
2018-05-10T22:59:44.732Z,17.30
2018-05-10T23:04:47.886Z,17.20
2018-05-10T23:09:53.237Z,17.10
2018-05-10T23:15:00.038Z,17.10
2018-05-10T23:20:05.405Z,17.00
2018-05-10T23:25:08.195Z,16.90
2018-05-10T23:35:20.315Z,16.80
2018-05-10T23:40:24.149Z,16.70
2018-05-10T23:45:27.089Z,16.70
2018-05-10T23:50:33.207Z,16.60
